Time;durP1;ratioP1;P1;durP2;ratioP2;P2;SDS_P1;SDS_P2;PMS_P1;PMS_P2;Temp;Humidity;BMP_temperature;BMP_pressure;BME280_temperature;BME280_humidity;BME280_pressure;Samples;Min_cycle;Max_cycle;Signal;HPM_P1;HPM_P2
2023/03/30 00:00:33;;;;;;;12.20;4.80;;;;;;;;;;110221;1278;22713;-78
2023/03/30 00:03:18;;;;;;;12.30;4.80;;;;;;;;;;110342;1278;22116;-76
2023/03/30 00:05:45;;;;;;;11.60;5.10;;;;;;;;;;110298;1278;23135;-76
2023/03/30 00:08:13;;;;;;;11.10;4.90;;;;;;;;;;110314;1259;22190;-76
2023/03/30 00:10:43;;;;;;;11.60;5.60;;;;;;;;;;110301;1277;22098;-77
2023/03/30 00:13:11;;;;;;;10.80;5.50;;;;;;;;;;110314;1277;22194;-76
2023/03/30 00:15:38;;;;;;;10.20;4.90;;;;;;;;;;110321;1277;22161;-77
2023/03/30 00:18:06;;;;;;;11.50;5.30;;;;;;;;;;110495;1260;22129;-76
2023/03/30 00:20:32;;;;;;;12.40;5.70;;;;;;;;;;110291;1274;23048;-76
2023/03/30 00:23:00;;;;;;;11.80;5.20;;;;;;;;;;110061;1279;22012;-77
2023/03/30 00:25:27;;;;;;;11.60;5.30;;;;;;;;;;110096;1279;22196;-77
2023/03/30 00:27:55;;;;;;;12.80;5.60;;;;;;;;;;110372;1257;23087;-76
2023/03/30 00:30:22;;;;;;;14.50;5.00;;;;;;;;;;110452;1278;22186;-76
2023/03/30 00:32:50;;;;;;;11.60;5.60;;;;;;;;;;110422;1278;22115;-76
2023/03/30 00:35:18;;;;;;;12.10;5.00;;;;;;;;;;110442;1278;22992;-76
2023/03/30 00:37:48;;;;;;;13.50;5.60;;;;;;;;;;110675;1260;22098;-77
2023/03/30 00:40:18;;;;;;;11.30;5.60;;;;;;;;;;110408;1278;22168;-77
2023/03/30 00:42:47;;;;;;;12.20;5.20;;;;;;;;;;110455;1277;22127;-76
2023/03/30 00:45:24;;;;;;;11.60;4.80;;;;;;;;;;110440;1278;22423;-77
2023/03/30 00:47:55;;;;;;;11.60;4.60;;;;;;;;;;110693;1260;22118;-77
2023/03/30 00:50:26;;;;;;;10.40;4.80;;;;;;;;;;110446;1278;22129;-76
2023/03/30 00:52:55;;;;;;;10.20;4.50;;;;;;;;;;110847;1266;22107;-77
2023/03/30 00:55:24;;;;;;;9.70;4.50;;;;;;;;;;110297;1278;22067;-76
2023/03/30 00:57:52;;;;;;;11.70;5.10;;;;;;;;;;110567;1259;22094;-77
2023/03/30 01:00:20;;;;;;;11.90;5.10;;;;;;;;;;110447;1278;22173;-76
2023/03/30 01:02:52;;;;;;;11.30;5.10;;;;;;;;;;110449;1278;22132;-77
2023/03/30 01:05:20;;;;;;;12.90;5.00;;;;;;;;;;110306;1278;22982;-76
2023/03/30 01:07:48;;;;;;;11.70;4.80;;;;;;;;;;110431;1259;22149;-77
2023/03/30 01:10:16;;;;;;;12.30;4.90;;;;;;;;;;110438;1278;22399;-76
2023/03/30 01:12:44;;;;;;;11.40;4.40;;;;;;;;;;110430;1278;22157;-77
2023/03/30 01:15:11;;;;;;;10.20;4.90;;;;;;;;;;110432;1278;22087;-76
2023/03/30 01:17:56;;;;;;;12.30;4.80;;;;;;;;;;110463;1260;22157;-78
2023/03/30 01:20:58;;;;;;;10.10;4.40;;;;;;;;;;110259;1279;22139;-76
2023/03/30 01:23:50;;;;;;;8.40;4.00;;;;;;;;;;110293;1279;22297;-76
2023/03/30 01:26:34;;;;;;;18.90;4.40;;;;;;;;;;110280;1279;22135;-76
2023/03/30 01:29:22;;;;;;;9.90;4.50;;;;;;;;;;110470;1260;22140;-77
2023/03/30 01:32:03;;;;;;;10.60;4.60;;;;;;;;;;110280;1279;22164;-76
2023/03/30 01:34:39;;;;;;;9.30;4.50;;;;;;;;;;110171;1279;22279;-76
2023/03/30 01:37:38;;;;;;;9.10;4.30;;;;;;;;;;110202;1279;22933;-77
2023/03/30 01:40:16;;;;;;;11.00;4.60;;;;;;;;;;110193;1261;22109;-77
2023/03/30 01:42:58;;;;;;;12.30;4.90;;;;;;;;;;110217;1268;22092;-76
2023/03/30 01:45:35;;;;;;;9.90;4.10;;;;;;;;;;110281;1279;22484;-77
2023/03/30 01:52:35;;;;;;;9.30;4.20;;;;;;;;;;110397;1258;22100;-75
2023/03/30 01:55:09;;;;;;;9.20;4.70;;;;;;;;;;110306;1279;22157;-76
2023/03/30 01:57:57;;;;;;;9.60;4.40;;;;;;;;;;110296;1279;22801;-76
2023/03/30 02:00:27;;;;;;;10.70;4.70;;;;;;;;;;110201;1263;22875;-76
2023/03/30 02:03:08;;;;;;;10.00;4.50;;;;;;;;;;110299;1279;22074;-77
2023/03/30 02:05:37;;;;;;;10.60;4.80;;;;;;;;;;110273;1279;22346;-77
2023/03/30 02:08:12;;;;;;;10.10;4.60;;;;;;;;;;110126;1279;22125;-76
2023/03/30 02:10:43;;;;;;;13.30;5.30;;;;;;;;;;110284;1262;22597;-76
2023/03/30 02:13:13;;;;;;;13.90;5.40;;;;;;;;;;110267;1279;22784;-77
2023/03/30 02:15:48;;;;;;;10.70;4.70;;;;;;;;;;110167;1279;22101;-76
2023/03/30 02:18:18;;;;;;;10.20;4.70;;;;;;;;;;110167;1279;22314;-77
2023/03/30 02:26:06;;;;;;;13.10;5.00;;;;;;;;;;103941;1292;544975;-83
2023/03/30 02:28:34;;;;;;;12.10;4.40;;;;;;;;;;106024;1288;25475;-81
2023/03/30 02:31:21;;;;;;;10.10;5.00;;;;;;;;;;106028;1288;22588;-82
2023/03/30 02:34:01;;;;;;;;;;;;;;;;;;;;;
2023/03/30 02:37:00;;;;;;;10.40;4.80;;;;;;;;;;106464;1270;25450;-84
2023/03/30 02:39:52;;;;;;;;;;;;;;;;;;;;;
2023/03/30 02:42:20;;;;;;;10.80;4.90;;;;;;;;;;106726;1281;22533;-85
2023/03/30 02:44:47;;;;;;;10.70;4.80;;;;;;;;;;106884;1276;24222;-83
2023/03/30 02:47:38;;;;;;;13.10;5.00;;;;;;;;;;106931;1276;25329;-77
2023/03/30 02:50:22;;;;;;;9.70;4.60;;;;;;;;;;106896;1276;25216;-78
2023/03/30 02:52:58;;;;;;;10.40;4.80;;;;;;;;;;106857;1276;22702;-93
2023/03/30 02:59:32;;;;;;;11.30;5.00;;;;;;;;;;106943;1276;25791;-78
2023/03/30 03:02:21;;;;;;;;;;;;;;;;;;;;;
2023/03/30 03:05:13;;;;;;;10.60;5.00;;;;;;;;;;106426;1283;24385;-81
2023/03/30 03:08:00;;;;;;;12.20;4.60;;;;;;;;;;106374;1267;24272;-85
2023/03/30 03:10:42;;;;;;;12.50;4.50;;;;;;;;;;106452;1284;24061;-79
2023/03/30 03:14:18;;;;;;;12.90;5.00;;;;;;;;;;106420;1282;25570;-78
2023/03/30 03:17:20;;;;;;;10.90;4.30;;;;;;;;;;105794;1285;22547;-82
2023/03/30 03:20:12;;;;;;;9.90;4.60;;;;;;;;;;105971;1270;24215;-86
2023/03/30 03:23:28;;;;;;;;;;;;;;;;;;;;;
2023/03/30 03:26:08;;;;;;;9.70;4.50;;;;;;;;;;105983;1267;25304;-78
2023/03/30 03:29:05;;;;;;;10.10;5.10;;;;;;;;;;106099;1283;22535;-80
2023/03/30 03:31:34;;;;;;;13.30;6.10;;;;;;;;;;105973;1289;24392;-80
2023/03/30 03:35:17;;;;;;;11.90;5.70;;;;;;;;;;105942;1289;25345;-82
2023/03/30 03:38:07;;;;;;;10.90;5.00;;;;;;;;;;105895;1286;25254;-81
2023/03/30 03:40:41;;;;;;;;;;;;;;;;;;;;;
2023/03/30 03:43:40;;;;;;;;;;;;;;;;;;;;;
2023/03/30 03:46:18;;;;;;;11.80;5.10;;;;;;;;;;106194;1286;22543;-78
2023/03/30 03:48:56;;;;;;;12.40;4.90;;;;;;;;;;106038;1268;22660;-79
2023/03/30 03:51:34;;;;;;;10.60;4.40;;;;;;;;;;106389;1286;24239;-79
2023/03/30 03:54:34;;;;;;;10.70;4.90;;;;;;;;;;106447;1279;21719;-83
2023/03/30 03:57:12;;;;;;;11.80;4.70;;;;;;;;;;106808;1256;24275;-83
2023/03/30 03:59:58;;;;;;;11.00;4.80;;;;;;;;;;106825;1279;22539;-82
2023/03/30 04:02:33;;;;;;;13.70;5.00;;;;;;;;;;106877;1279;25318;-81
2023/03/30 04:05:06;;;;;;;13.70;4.80;;;;;;;;;;106838;1279;24227;-83
2023/03/30 04:07:34;;;;;;;9.40;4.40;;;;;;;;;;106848;1262;22525;-85
2023/03/30 04:10:05;;;;;;;9.50;4.60;;;;;;;;;;106883;1279;22543;-82
2023/03/30 04:12:53;;;;;;;10.60;4.80;;;;;;;;;;106866;1279;22543;-84
2023/03/30 04:15:55;;;;;;;14.60;5.60;;;;;;;;;;106805;1279;24205;-78
2023/03/30 04:18:58;;;;;;;13.50;5.60;;;;;;;;;;106599;1277;22526;-81
2023/03/30 04:22:34;;;;;;;15.20;5.60;;;;;;;;;;106706;1279;21767;-81
2023/03/30 04:25:24;;;;;;;11.00;4.80;;;;;;;;;;106880;1279;25395;-82
2023/03/30 04:31:33;;;;;;;14.10;4.80;;;;;;;;;;106860;1279;24042;-78
2023/03/30 04:34:25;;;;;;;10.30;4.70;;;;;;;;;;106795;1279;25349;-83
2023/03/30 04:38:01;;;;;;;;;;;;;;;;;;;;;
2023/03/30 04:40:49;;;;;;;10.90;5.40;;;;;;;;;;106500;1267;22534;-80
2023/03/30 04:43:39;;;;;;;19.00;8.20;;;;;;;;;;106496;1281;22570;-82
2023/03/30 04:46:56;;;;;;;15.40;6.30;;;;;;;;;;106501;1279;25513;-81
2023/03/30 04:50:03;;;;;;;12.90;6.20;;;;;;;;;;106504;1282;22529;-81
2023/03/30 04:53:16;;;;;;;;;;;;;;;;;;;;;
2023/03/30 04:56:20;;;;;;;11.30;4.80;;;;;;;;;;106517;1281;22634;-77
2023/03/30 04:59:47;;;;;;;12.20;5.40;;;;;;;;;;106536;1261;25275;-79
2023/03/30 05:02:39;;;;;;;13.20;5.60;;;;;;;;;;106564;1281;25380;-82
2023/03/30 05:06:11;;;;;;;15.90;6.80;;;;;;;;;;106445;1281;25390;-82
2023/03/30 05:08:55;;;;;;;13.10;6.40;;;;;;;;;;106789;1276;25535;-78
2023/03/30 05:11:47;;;;;;;16.20;6.60;;;;;;;;;;106882;1275;22650;-77
2023/03/30 05:15:09;;;;;;;13.10;6.00;;;;;;;;;;106721;1276;23125;-80
2023/03/30 05:18:11;;;;;;;;;;;;;;;;;;;;;
2023/03/30 05:21:37;;;;;;;;;;;;;;;;;;;;;
2023/03/30 05:24:44;;;;;;;14.70;6.70;;;;;;;;;;106787;1276;24219;-76
2023/03/30 05:27:57;;;;;;;14.70;7.20;;;;;;;;;;106797;1276;22521;-81
2023/03/30 05:31:01;;;;;;;;;;;;;;;;;;;;;
2023/03/30 05:33:53;;;;;;;16.70;8.40;;;;;;;;;;106871;1267;25312;-79
2023/03/30 05:36:52;;;;;;;18.50;9.60;;;;;;;;;;106680;1276;25392;-81
2023/03/30 05:43:43;;;;;;;14.90;7.60;;;;;;;;;;106831;1276;22625;-79
2023/03/30 05:47:00;;;;;;;14.50;7.40;;;;;;;;;;107089;1272;25278;-82
2023/03/30 05:49:58;;;;;;;13.20;6.30;;;;;;;;;;107085;1269;22542;-80
2023/03/30 05:52:44;;;;;;;14.10;6.90;;;;;;;;;;107049;1272;25341;-78
2023/03/30 05:55:54;;;;;;;17.70;7.40;;;;;;;;;;107067;1275;22478;-86
2023/03/30 05:59:11;;;;;;;;;;;;;;;;;;;;;
2023/03/30 06:02:50;;;;;;;15.70;7.80;;;;;;;;;;107019;1269;25347;-80
2023/03/30 06:05:52;;;;;;;18.90;7.50;;;;;;;;;;106624;1284;22523;-77
2023/03/30 06:08:42;;;;;;;17.10;7.50;;;;;;;;;;106408;1284;22534;-84
2023/03/30 06:11:52;;;;;;;17.50;9.00;;;;;;;;;;106638;1267;25453;-83
2023/03/30 06:14:56;;;;;;;13.70;7.20;;;;;;;;;;106358;1280;23165;-85
2023/03/30 06:18:26;;;;;;;17.00;7.30;;;;;;;;;;106502;1277;25324;-83
2023/03/30 06:21:44;;;;;;;15.70;7.00;;;;;;;;;;106543;1263;22828;-78
2023/03/30 06:25:36;;;;;;;15.30;7.20;;;;;;;;;;106463;1284;22526;-81
2023/03/30 06:27:49;;;;;;;14.20;7.20;;;;;;;;;;106143;1289;22633;-83
2023/03/30 06:30:47;;;;;;;;;;;;;;;;;;;;;
2023/03/30 06:33:40;;;;;;;13.10;6.60;;;;;;;;;;105847;1278;22604;-83
2023/03/30 06:36:36;;;;;;;16.70;6.70;;;;;;;;;;105754;1294;22548;-78
2023/03/30 06:39:05;;;;;;;17.80;6.80;;;;;;;;;;105781;1293;24058;-82
2023/03/30 06:41:56;;;;;;;14.90;7.10;;;;;;;;;;105782;1289;22560;-78
2023/03/30 06:44:53;;;;;;;16.40;7.10;;;;;;;;;;106110;1270;22592;-80
2023/03/30 06:47:34;;;;;;;15.30;7.10;;;;;;;;;;106029;1288;22755;-81
2023/03/30 06:50:06;;;;;;;14.10;7.50;;;;;;;;;;106316;1288;22523;-86
2023/03/30 06:53:32;;;;;;;;;;;;;;;;;;;;;
2023/03/30 06:56:21;;;;;;;14.80;7.10;;;;;;;;;;106049;1288;25409;-81
2023/03/30 06:59:08;;;;;;;15.80;8.00;;;;;;;;;;106025;1288;23892;-85
2023/03/30 07:02:05;;;;;;;17.20;8.10;;;;;;;;;;106043;1289;22544;-80
2023/03/30 07:05:23;;;;;;;17.90;8.80;;;;;;;;;;106195;1284;22530;-80
2023/03/30 07:08:25;;;;;;;15.30;8.20;;;;;;;;;;106404;1284;25233;-81
2023/03/30 07:11:08;;;;;;;;;;;;;;;;;;;;;
2023/03/30 07:17:30;;;;;;;15.00;8.00;;;;;;;;;;106637;1281;22579;-80
2023/03/30 07:20:17;;;;;;;14.70;7.90;;;;;;;;;;106484;1281;22531;-84
2023/03/30 07:23:07;;;;;;;14.50;7.50;;;;;;;;;;106462;1281;22642;-80
2023/03/30 07:26:17;;;;;;;13.70;6.40;;;;;;;;;;106574;1262;22486;-86
2023/03/30 07:28:57;;;;;;;14.10;6.50;;;;;;;;;;106600;1281;25342;-84
2023/03/30 07:32:02;;;;;;;;;;;;;;;;;;;;;
2023/03/30 07:34:35;;;;;;;13.10;6.40;;;;;;;;;;106494;1267;22792;-85
2023/03/30 07:37:04;;;;;;;14.10;6.50;;;;;;;;;;106403;1281;26589;-86
2023/03/30 07:39:32;;;;;;;13.90;6.50;;;;;;;;;;106519;1281;22528;-84
2023/03/30 07:42:11;;;;;;;12.50;6.30;;;;;;;;;;106581;1281;24426;-83
2023/03/30 07:45:03;;;;;;;11.40;6.10;;;;;;;;;;106565;1269;24396;-81
2023/03/30 07:47:36;;;;;;;12.20;6.60;;;;;;;;;;106516;1282;24206;-80
2023/03/30 07:50:26;;;;;;;13.20;6.30;;;;;;;;;;106492;1281;24250;-79
2023/03/30 07:53:13;;;;;;;12.30;6.50;;;;;;;;;;106620;1272;22480;-87
2023/03/30 07:56:10;;;;;;;16.70;7.60;;;;;;;;;;107055;1266;26467;-85
2023/03/30 07:58:45;;;;;;;14.20;6.40;;;;;;;;;;106945;1276;26587;-77
2023/03/30 08:01:53;;;;;;;14.90;7.00;;;;;;;;;;107128;1276;22601;-85
2023/03/30 08:04:52;;;;;;;13.80;6.60;;;;;;;;;;107037;1276;25278;-91
2023/03/30 08:07:27;;;;;;;12.90;6.00;;;;;;;;;;107065;1276;24225;-86
2023/03/30 08:10:02;;;;;;;13.80;6.80;;;;;;;;;;106922;1275;22527;-84
2023/03/30 08:12:30;;;;;;;10.40;4.70;;;;;;;;;;106805;1276;22527;-83
2023/03/30 08:15:23;;;;;;;14.10;6.00;;;;;;;;;;106908;1256;24306;-82
2023/03/30 08:18:05;;;;;;;;;;;;;;;;;;;;;
2023/03/30 08:21:13;;;;;;;15.60;6.80;;;;;;;;;;106970;1276;24340;-87
2023/03/30 08:24:03;;;;;;;11.00;5.00;;;;;;;;;;107102;1276;22522;-85
2023/03/30 08:26:32;;;;;;;11.10;5.00;;;;;;;;;;107138;1257;25319;-83
2023/03/30 08:29:11;;;;;;;13.70;5.70;;;;;;;;;;107136;1275;22603;-85
2023/03/30 08:31:40;;;;;;;14.70;6.00;;;;;;;;;;106950;1276;24243;-81
2023/03/30 08:34:12;;;;;;;11.70;5.50;;;;;;;;;;107005;1276;22623;-79
2023/03/30 08:36:45;;;;;;;10.80;4.80;;;;;;;;;;107046;1267;25428;-87
2023/03/30 08:39:17;;;;;;;10.90;4.50;;;;;;;;;;107186;1275;22618;-80
2023/03/30 08:41:50;;;;;;;13.10;5.60;;;;;;;;;;107040;1276;25553;-86
2023/03/30 08:44:25;;;;;;;12.20;4.90;;;;;;;;;;106950;1273;22519;-82
2023/03/30 08:46:55;;;;;;;13.80;6.00;;;;;;;;;;107123;1257;23273;-85
2023/03/30 08:49:34;;;;;;;16.00;7.00;;;;;;;;;;107026;1276;22544;-83
2023/03/30 08:52:21;;;;;;;11.30;5.80;;;;;;;;;;107073;1276;24189;-84
2023/03/30 08:54:58;;;;;;;12.90;5.80;;;;;;;;;;107135;1276;23736;-82
2023/03/30 08:57:51;;;;;;;;;;;;;;;;;;;;;
2023/03/30 09:00:27;;;;;;;11.90;5.60;;;;;;;;;;106998;1276;22524;-82
2023/03/30 09:03:06;;;;;;;12.50;6.10;;;;;;;;;;106776;1276;22508;-81
2023/03/30 09:05:53;;;;;;;12.90;5.50;;;;;;;;;;106928;1276;24219;-82
2023/03/30 09:08:23;;;;;;;10.80;5.50;;;;;;;;;;107108;1276;25242;-82
2023/03/30 09:11:11;;;;;;;10.70;5.00;;;;;;;;;;106928;1276;22998;-84
2023/03/30 09:13:44;;;;;;;14.10;6.10;;;;;;;;;;106948;1275;22067;-86
2023/03/30 09:16:16;;;;;;;11.60;5.30;;;;;;;;;;107147;1257;22537;-84
2023/03/30 09:18:50;;;;;;;12.70;6.10;;;;;;;;;;107070;1276;22579;-81
2023/03/30 09:21:37;;;;;;;10.00;5.40;;;;;;;;;;107088;1270;22510;-85
2023/03/30 09:24:19;;;;;;;13.90;6.60;;;;;;;;;;107238;1271;24249;-83
2023/03/30 09:27:25;;;;;;;12.40;6.00;;;;;;;;;;106996;1257;23879;-80
2023/03/30 09:30:12;;;;;;;12.50;5.30;;;;;;;;;;107329;1269;24252;-85
2023/03/30 09:32:45;;;;;;;11.30;5.40;;;;;;;;;;107304;1268;22565;-79
2023/03/30 09:35:23;;;;;;;12.50;6.00;;;;;;;;;;107099;1273;24204;-80
2023/03/30 09:37:53;;;;;;;11.10;5.10;;;;;;;;;;107100;1260;22538;-84
2023/03/30 09:40:39;;;;;;;13.70;5.90;;;;;;;;;;107102;1269;24299;-80
2023/03/30 09:43:24;;;;;;;11.70;5.60;;;;;;;;;;107332;1273;25281;-80
2023/03/30 09:45:53;;;;;;;13.20;6.10;;;;;;;;;;106992;1269;26450;-83
2023/03/30 09:48:36;;;;;;;14.40;6.30;;;;;;;;;;107028;1257;22533;-81
2023/03/30 09:51:32;;;;;;;13.80;6.50;;;;;;;;;;107106;1270;22543;-79
2023/03/30 09:54:07;;;;;;;19.20;8.40;;;;;;;;;;106969;1268;25190;-80
2023/03/30 09:56:43;;;;;;;16.30;9.10;;;;;;;;;;107163;1269;22553;-81
2023/03/30 10:00:03;;;;;;;;;;;;;;;;;;;;;
2023/03/30 10:02:56;;;;;;;14.10;7.30;;;;;;;;;;107279;1269;22524;-82
2023/03/30 10:05:26;;;;;;;14.70;7.80;;;;;;;;;;107114;1270;25964;-84
2023/03/30 10:08:04;;;;;;;15.10;7.80;;;;;;;;;;107137;1261;22648;-81
2023/03/30 10:10:36;;;;;;;14.10;7.40;;;;;;;;;;107030;1270;22583;-83
2023/03/30 10:13:44;;;;;;;16.30;7.60;;;;;;;;;;106727;1271;25229;-82
2023/03/30 10:16:28;;;;;;;13.30;6.70;;;;;;;;;;106772;1278;25346;-86
2023/03/30 10:19:28;;;;;;;14.10;6.60;;;;;;;;;;106555;1263;22646;-79
2023/03/30 10:22:16;;;;;;;13.20;7.20;;;;;;;;;;106472;1274;22537;-83
2023/03/30 10:24:53;;;;;;;15.80;8.20;;;;;;;;;;106727;1273;23100;-83
2023/03/30 10:27:44;;;;;;;16.40;9.60;;;;;;;;;;106710;1274;22541;-79
2023/03/30 10:30:18;;;;;;;22.30;10.30;;;;;;;;;;106568;1273;22576;-81
2023/03/30 10:33:00;;;;;;;18.00;8.60;;;;;;;;;;106517;1275;25366;-79
2023/03/30 10:35:40;;;;;;;18.50;9.50;;;;;;;;;;106552;1273;22512;-80
2023/03/30 10:38:17;;;;;;;27.20;12.90;;;;;;;;;;106490;1265;22745;-81
2023/03/30 10:41:01;;;;;;;16.90;10.00;;;;;;;;;;106566;1279;22795;-84
2023/03/30 10:44:09;;;;;;;14.00;8.00;;;;;;;;;;106866;1273;26821;-78
2023/03/30 10:46:44;;;;;;;13.30;7.60;;;;;;;;;;106635;1280;22571;-80
2023/03/30 10:49:37;;;;;;;17.40;7.90;;;;;;;;;;106690;1262;24185;-84
2023/03/30 10:52:16;;;;;;;14.00;7.90;;;;;;;;;;107109;1275;22757;-81
2023/03/30 10:54:54;;;;;;;15.70;6.40;;;;;;;;;;106799;1275;22530;-77
2023/03/30 10:57:36;;;;;;;17.20;7.50;;;;;;;;;;106892;1276;24217;-82
2023/03/30 11:00:30;;;;;;;14.50;6.80;;;;;;;;;;107406;1261;22034;-79
2023/03/30 11:03:38;;;;;;;19.50;7.10;;;;;;;;;;107693;1272;23280;-81
2023/03/30 11:06:09;;;;;;;17.00;7.50;;;;;;;;;;106962;1282;24376;-78
2023/03/30 11:08:41;;;;;;;14.30;7.00;;;;;;;;;;106828;1260;22637;-81
2023/03/30 11:11:36;;;;;;;14.60;7.20;;;;;;;;;;109985;1282;22217;-79
2023/03/30 11:14:10;;;;;;;12.90;6.70;;;;;;;;;;110012;1283;22169;-80
2023/03/30 11:16:49;;;;;;;13.00;6.30;;;;;;;;;;109947;1282;22175;-80
2023/03/30 11:19:19;;;;;;;16.00;7.00;;;;;;;;;;109974;1267;22201;-80
2023/03/30 11:21:59;;;;;;;14.50;7.30;;;;;;;;;;109921;1283;22191;-79
2023/03/30 11:24:27;;;;;;;16.90;6.70;;;;;;;;;;109930;1283;22237;-79
2023/03/30 11:26:54;;;;;;;14.00;7.70;;;;;;;;;;109949;1283;22166;-80
2023/03/30 11:29:26;;;;;;;15.80;7.30;;;;;;;;;;109991;1264;22258;-78
2023/03/30 11:32:09;;;;;;;14.30;6.90;;;;;;;;;;110014;1283;22914;-79
2023/03/30 11:34:41;;;;;;;18.10;7.70;;;;;;;;;;109980;1283;22966;-82
2023/03/30 11:37:20;;;;;;;18.80;7.10;;;;;;;;;;109912;1283;22898;-81
2023/03/30 11:39:50;;;;;;;14.10;6.10;;;;;;;;;;109976;1261;22183;-80
2023/03/30 11:42:24;;;;;;;17.30;7.10;;;;;;;;;;110078;1278;22096;-80
2023/03/30 11:45:00;;;;;;;19.60;9.00;;;;;;;;;;110195;1278;22125;-81
2023/03/30 11:47:55;;;;;;;16.30;7.50;;;;;;;;;;110352;1278;22115;-80
2023/03/30 11:50:47;;;;;;;;;;;;;;;;;;;;;
2023/03/30 11:53:32;;;;;;;22.20;9.50;;;;;;;;;;110062;1282;22090;-81
2023/03/30 11:56:37;;;;;;;19.50;8.30;;;;;;;;;;110000;1282;21725;-80
2023/03/30 11:59:05;;;;;;;18.60;7.70;;;;;;;;;;109717;1288;22366;-81
2023/03/30 12:01:35;;;;;;;15.10;7.20;;;;;;;;;;109642;1266;22153;-80
2023/03/30 12:04:06;;;;;;;16.90;7.60;;;;;;;;;;109794;1288;22161;-79
2023/03/30 12:06:46;;;;;;;18.40;7.60;;;;;;;;;;109664;1288;22847;-80
2023/03/30 12:09:21;;;;;;;16.40;6.50;;;;;;;;;;109718;1288;22189;-81
2023/03/30 12:12:01;;;;;;;15.70;6.90;;;;;;;;;;109607;1267;22209;-81
2023/03/30 12:14:52;;;;;;;18.00;7.90;;;;;;;;;;109716;1288;23005;-80
2023/03/30 12:17:24;;;;;;;19.00;8.60;;;;;;;;;;109726;1288;22260;-81
2023/03/30 12:19:59;;;;;;;14.60;6.70;;;;;;;;;;109633;1264;22432;-81
2023/03/30 12:22:30;;;;;;;15.20;6.80;;;;;;;;;;109674;1274;21813;-77
2023/03/30 12:25:05;;;;;;;17.70;7.40;;;;;;;;;;109717;1288;22253;-81
2023/03/30 12:27:35;;;;;;;18.30;8.80;;;;;;;;;;109811;1284;22160;-81
2023/03/30 12:30:22;;;;;;;19.50;8.70;;;;;;;;;;109935;1262;22352;-80
2023/03/30 12:32:56;;;;;;;15.70;6.10;;;;;;;;;;110042;1277;22151;-80
2023/03/30 12:35:42;;;;;;;13.60;6.00;;;;;;;;;;110333;1264;22251;-81
2023/03/30 12:38:29;;;;;;;13.20;5.70;;;;;;;;;;110442;1277;22340;-80
2023/03/30 12:41:22;;;;;;;13.90;5.70;;;;;;;;;;110466;1259;22194;-80
2023/03/30 12:44:02;;;;;;;14.60;6.60;;;;;;;;;;110404;1277;22772;-81
2023/03/30 12:46:58;;;;;;;11.10;5.00;;;;;;;;;;110328;1276;21965;-80
2023/03/30 12:49:25;;;;;;;11.70;5.40;;;;;;;;;;110455;1277;22113;-81
2023/03/30 12:52:12;;;;;;;11.90;5.40;;;;;;;;;;110658;1257;22111;-81
2023/03/30 12:54:51;;;;;;;11.70;5.00;;;;;;;;;;110434;1277;22155;-79
2023/03/30 12:57:30;;;;;;;13.80;5.40;;;;;;;;;;110457;1277;22072;-79
2023/03/30 13:00:07;;;;;;;12.50;6.10;;;;;;;;;;110338;1277;22802;-78
2023/03/30 13:02:39;;;;;;;12.40;6.00;;;;;;;;;;110578;1254;22117;-81
2023/03/30 13:05:18;;;;;;;10.80;5.30;;;;;;;;;;110426;1277;22078;-81
2023/03/30 13:07:45;;;;;;;11.00;5.30;;;;;;;;;;110313;1277;22345;-78
2023/03/30 13:10:30;;;;;;;10.40;4.30;;;;;;;;;;110328;1277;22115;-78
2023/03/30 13:13:02;;;;;;;15.80;7.60;;;;;;;;;;110541;1257;23046;-81
2023/03/30 13:15:53;;;;;;;14.10;5.40;;;;;;;;;;110409;1277;22176;-79
2023/03/30 13:18:30;;;;;;;16.00;6.50;;;;;;;;;;110183;1275;22112;-79
2023/03/30 13:21:05;;;;;;;22.70;9.80;;;;;;;;;;110237;1258;22390;-80
2023/03/30 13:23:34;;;;;;;22.40;10.10;;;;;;;;;;110165;1262;22118;-79
2023/03/30 13:26:08;;;;;;;17.10;7.30;;;;;;;;;;110138;1279;22122;-79
2023/03/30 13:28:53;;;;;;;14.60;6.20;;;;;;;;;;110176;1279;22115;-75
2023/03/30 13:31:40;;;;;;;12.10;5.40;;;;;;;;;;110375;1256;22433;-79
2023/03/30 13:34:18;;;;;;;12.80;5.20;;;;;;;;;;110281;1278;22121;-80
2023/03/30 13:36:59;;;;;;;10.20;4.90;;;;;;;;;;110179;1273;22159;-79
2023/03/30 13:39:33;;;;;;;13.50;5.70;;;;;;;;;;110274;1279;21937;-79
2023/03/30 13:42:08;;;;;;;16.20;5.60;;;;;;;;;;110171;1259;22127;-79
2023/03/30 13:44:54;;;;;;;12.80;5.70;;;;;;;;;;110213;1279;22213;-79
2023/03/30 13:47:39;;;;;;;12.70;5.70;;;;;;;;;;110301;1279;22163;-79
2023/03/30 13:50:15;;;;;;;15.00;5.70;;;;;;;;;;110268;1279;22589;-79
2023/03/30 13:52:44;;;;;;;14.20;5.40;;;;;;;;;;110355;1260;22136;-79
2023/03/30 13:55:24;;;;;;;14.00;5.00;;;;;;;;;;110071;1279;22103;-80
2023/03/30 13:58:04;;;;;;;12.60;4.90;;;;;;;;;;110178;1279;22110;-78
2023/03/30 14:00:48;;;;;;;;;;;;;;;;;;;;;
2023/03/30 14:03:59;;;;;;;10.70;5.40;;;;;;;;;;110199;1262;22164;-79
2023/03/30 14:06:28;;;;;;;8.60;3.70;;;;;;;;;;110011;1283;22168;-81
2023/03/30 14:09:08;;;;;;;10.20;4.10;;;;;;;;;;110011;1283;22934;-81
2023/03/30 14:11:37;;;;;;;10.20;4.00;;;;;;;;;;109880;1283;22144;-80
2023/03/30 14:14:22;;;;;;;10.40;5.20;;;;;;;;;;110145;1261;22631;-80
2023/03/30 14:16:50;;;;;;;11.40;4.20;;;;;;;;;;109917;1283;22471;-79
2023/03/30 14:19:20;;;;;;;9.20;3.60;;;;;;;;;;109992;1283;22164;-79
2023/03/30 14:21:48;;;;;;;7.60;3.20;;;;;;;;;;109931;1284;22199;-83
2023/03/30 14:24:34;;;;;;;10.50;4.70;;;;;;;;;;109854;1265;22163;-80
2023/03/30 14:27:01;;;;;;;13.20;4.80;;;;;;;;;;109994;1283;22201;-80
2023/03/30 14:29:30;;;;;;;12.50;5.20;;;;;;;;;;109980;1283;22166;-81
2023/03/30 14:32:46;;;;;;;15.80;7.10;;;;;;;;;;109897;1283;21969;-80
2023/03/30 14:34:53;;;;;;;15.80;5.70;;;;;;;;;;110066;1266;22113;-88
2023/03/30 14:37:22;;;;;;;13.10;4.60;;;;;;;;;;110194;1280;22130;-81
2023/03/30 14:39:56;;;;;;;12.20;4.30;;;;;;;;;;108317;1279;2389791;-81
2023/03/30 14:42:30;;;;;;;13.90;5.40;;;;;;;;;;110208;1278;22099;-81
2023/03/30 14:44:57;;;;;;;12.00;4.50;;;;;;;;;;110251;1259;22113;-78
2023/03/30 14:47:28;;;;;;;9.90;4.10;;;;;;;;;;110223;1278;22057;-81
2023/03/30 14:50:00;;;;;;;12.50;4.80;;;;;;;;;;110207;1278;22157;-79
2023/03/30 14:52:39;;;;;;;9.40;3.40;;;;;;;;;;110216;1278;22833;-80
2023/03/30 14:55:09;;;;;;;12.80;5.00;;;;;;;;;;110479;1259;22121;-81
2023/03/30 14:57:43;;;;;;;12.10;4.30;;;;;;;;;;110223;1279;22018;-80
2023/03/30 15:00:19;;;;;;;11.20;4.50;;;;;;;;;;110225;1272;22972;-76
2023/03/30 15:02:56;;;;;;;14.00;4.60;;;;;;;;;;110279;1278;22304;-81
2023/03/30 15:05:31;;;;;;;16.60;6.00;;;;;;;;;;110617;1256;22123;-80
2023/03/30 15:08:00;;;;;;;15.40;5.90;;;;;;;;;;110170;1278;22093;-76
2023/03/30 15:10:44;;;;;;;21.70;5.70;;;;;;;;;;110195;1278;22873;-77
2023/03/30 15:13:24;;;;;;;14.50;4.10;;;;;;;;;;110150;1278;22129;-77
2023/03/30 15:15:53;;;;;;;13.30;4.90;;;;;;;;;;110736;1260;22153;-79
2023/03/30 15:18:45;;;;;;;12.80;3.50;;;;;;;;;;110220;1276;22338;-78
2023/03/30 15:21:13;;;;;;;10.80;3.40;;;;;;;;;;110256;1278;22120;-81
2023/03/30 15:23:46;;;;;;;9.60;2.20;;;;;;;;;;110299;1278;23200;-83
2023/03/30 15:26:15;;;;;;;8.90;3.00;;;;;;;;;;110484;1260;22098;-81
2023/03/30 15:28:45;;;;;;;10.20;3.00;;;;;;;;;;110346;1275;22136;-82
2023/03/30 15:31:13;;;;;;;10.40;3.00;;;;;;;;;;110358;1278;22270;-81
2023/03/30 15:33:42;;;;;;;10.60;3.40;;;;;;;;;;110191;1278;22088;-82
2023/03/30 15:36:16;;;;;;;8.60;3.10;;;;;;;;;;110595;1256;22112;-81
2023/03/30 15:38:48;;;;;;;10.00;3.90;;;;;;;;;;110233;1278;22106;-81
2023/03/30 15:41:16;;;;;;;10.40;4.00;;;;;;;;;;110204;1278;22791;-80
2023/03/30 15:44:12;;;;;;;14.80;5.60;;;;;;;;;;110387;1278;22324;-80
2023/03/30 15:46:48;;;;;;;14.40;4.50;;;;;;;;;;110078;1266;22903;-80
2023/03/30 15:49:26;;;;;;;14.90;4.40;;;;;;;;;;110055;1279;22214;-81
2023/03/30 15:52:00;;;;;;;16.20;5.10;;;;;;;;;;110062;1277;22159;-80
2023/03/30 15:54:30;;;;;;;18.30;5.90;;;;;;;;;;110091;1279;22389;-81
2023/03/30 15:57:02;;;;;;;19.50;5.20;;;;;;;;;;110521;1260;22846;-81
2023/03/30 15:59:31;;;;;;;16.00;4.30;;;;;;;;;;110207;1278;22083;-81
2023/03/30 16:02:13;;;;;;;14.50;4.20;;;;;;;;;;110137;1278;22179;-81
2023/03/30 16:04:40;;;;;;;20.20;5.60;;;;;;;;;;110146;1278;22049;-81
2023/03/30 16:07:19;;;;;;;19.50;6.40;;;;;;;;;;110518;1259;22122;-82
2023/03/30 16:09:50;;;;;;;16.20;4.50;;;;;;;;;;110126;1278;22094;-82
2023/03/30 16:12:23;;;;;;;17.00;4.70;;;;;;;;;;110232;1278;22127;-85
2023/03/30 16:14:50;;;;;;;14.90;4.40;;;;;;;;;;110139;1278;21971;-83
2023/03/30 16:17:20;;;;;;;10.80;3.20;;;;;;;;;;110492;1262;22117;-81
2023/03/30 16:19:48;;;;;;;13.80;3.90;;;;;;;;;;110156;1278;22151;-80
2023/03/30 16:22:15;;;;;;;14.10;4.80;;;;;;;;;;110271;1278;22129;-80
2023/03/30 16:24:43;;;;;;;11.90;4.60;;;;;;;;;;110129;1279;22181;-81
2023/03/30 16:27:11;;;;;;;11.70;4.80;;;;;;;;;;110118;1262;22219;-80
2023/03/30 16:29:38;;;;;;;12.80;4.70;;;;;;;;;;110049;1280;22902;-81
2023/03/30 16:32:05;;;;;;;15.20;4.50;;;;;;;;;;110066;1280;22609;-81
2023/03/30 16:34:32;;;;;;;9.30;4.00;;;;;;;;;;110085;1280;21989;-80